Map

Track Data

SID SEASON NUMBER BASIN SUBBASIN NAME ISO_TIME NATURE LAT LON WMO_WIND WMO_PRES WMO_AGENCY TRACK_TYPE DIST2LAND LANDFALL IFLAG USA_AGENCY USA_ATCF_ID USA_LAT USA_LON USA_RECORD USA_STATUS USA_WIND USA_PRES USA_SSHS USA_R34_NE USA_R34_SE USA_R34_SW USA_R34_NW USA_R50_NE USA_R50_SE USA_R50_SW USA_R50_NW USA_R64_NE USA_R64_SE USA_R64_SW USA_R64_NW USA_POCI USA_ROCI USA_RMW USA_EYE TOKYO_LAT TOKYO_LON TOKYO_GRADE TOKYO_WIND TOKYO_PRES TOKYO_R50_DIR TOKYO_R50_LONG TOKYO_R50_SHORT TOKYO_R30_DIR TOKYO_R30_LONG TOKYO_R30_SHORT TOKYO_LAND CMA_LAT CMA_LON CMA_CAT CMA_WIND CMA_PRES HKO_LAT HKO_LON HKO_CAT HKO_WIND HKO_PRES NEWDELHI_LAT NEWDELHI_LON NEWDELHI_GRADE NEWDELHI_WIND NEWDELHI_PRES NEWDELHI_CI NEWDELHI_DP NEWDELHI_POCI REUNION_LAT REUNION_LON REUNION_TYPE REUNION_WIND REUNION_PRES REUNION_TNUM REUNION_CI REUNION_RMW REUNION_R34_NE REUNION_R34_SE REUNION_R34_SW REUNION_R34_NW REUNION_R50_NE REUNION_R50_SE REUNION_R50_SW REUNION_R50_NW REUNION_R64_NE REUNION_R64_SE REUNION_R64_SW REUNION_R64_NW BOM_LAT BOM_LON BOM_TYPE BOM_WIND BOM_PRES BOM_TNUM BOM_CI BOM_RMW BOM_R34_NE BOM_R34_SE BOM_R34_SW BOM_R34_NW BOM_R50_NE BOM_R50_SE BOM_R50_SW BOM_R50_NW BOM_R64_NE BOM_R64_SE BOM_R64_SW BOM_R64_NW BOM_ROCI BOM_POCI BOM_EYE BOM_POS_METHOD BOM_PRES_METHOD NADI_LAT NADI_LON NADI_CAT NADI_WIND NADI_PRES WELLINGTON_LAT WELLINGTON_LON WELLINGTON_WIND WELLINGTON_PRES DS824_LAT DS824_LON DS824_STAGE DS824_WIND DS824_PRES TD9636_LAT TD9636_LON TD9636_STAGE TD9636_WIND TD9636_PRES TD9635_LAT TD9635_LON TD9635_WIND TD9635_PRES TD9635_ROCI NEUMANN_LAT NEUMANN_LON NEUMANN_CLASS NEUMANN_WIND NEUMANN_PRES MLC_LAT MLC_LON MLC_CLASS MLC_WIND MLC_PRES USA_GUST BOM_GUST BOM_GUST_PER REUNION_GUST REUNION_GUST_PER USA_SEAHGT USA_SEARAD_NE USA_SEARAD_SE USA_SEARAD_SW USA_SEARAD_NW STORM_SPEED STORM_DIR
1981039S09178 1981 9 SP MM CLIFF 1981-02-08 00:00:00 NR -9.00000 178.000 30 997 wellington main 829 813 ________O_____ -1 -9.00000 178.000 30 997 9 246
1981039S09178 1981 9 SP MM CLIFF 1981-02-08 03:00:00 NR -9.17931 177.601 main 819 819 ________P_____ -1 -9.17931 177.601 30 997 10 273
1981039S09178 1981 9 SP MM CLIFF 1981-02-08 06:00:00 TS -8.94340 177.031 main 871 863 O_______P_O_O_ jtwc_sh SH151981 -8.50000 176.900 20 -1 -9.38679 177.161 30 997 -8.50000 176.900 1 20 -8.50000 176.900 TC 20 12 270
1981039S09178 1981 9 SP MM CLIFF 1981-02-08 09:00:00 TS -9.17016 176.346 main 867 865 P_______P_P_P_ SH151981 -8.85282 176.143 20 -1 -9.65094 176.641 30 997 -8.84329 176.160 1 21 -8.85282 176.143 TC 20 15 251
1981039S09178 1981 9 SP MM CLIFF 1981-02-08 12:00:00 TS -9.44355 175.591 30 997 wellington main 875 865 O_______O_P_O_ jtwc_sh SH151981 -9.20000 175.400 20 -1 -10.0000 176.000 30 997 -9.18871 175.426 1 22 -9.20000 175.400 TC 20 16 248
1981039S09178 1981 9 SP MM CLIFF 1981-02-08 15:00:00 TS -9.76844 174.822 main 870 865 P_______P_P_P_ SH151981 -9.54236 174.685 22 -1 -10.4493 175.214 30 997 -9.53974 174.704 1 23 -9.54236 174.685 TC 22 17 244
1981039S09178 1981 9 SP MM CLIFF 1981-02-08 18:00:00 TS -10.1660 174.082 main 869 842 O_______P_O_O_ jtwc_sh SH151981 -9.90000 174.000 25 -1 -10.9638 174.327 30 997 -9.90000 174.000 1 25 -9.90000 174.000 TC 25 17 241
1981039S09178 1981 9 SP MM CLIFF 1981-02-08 21:00:00 TS -10.5885 173.348 main 833 745 P_______P_P_P_ SH151981 -10.2924 173.335 25 -1 -11.4962 173.401 30 997 -10.2731 173.322 1 26 -10.2924 173.335 TC 25 17 240
1981039S09178 1981 9 SP MM CLIFF 1981-02-09 00:00:00 TS -11.0205 172.582 30 997 wellington main 745 657 O_____O_O_P_O_ jtwc_sh SH151981 -10.7000 172.700 25 -1 -11.1000 171.600 20 25 1002 2.00000 -12.0000 172.500 30 997 -10.6621 172.675 1 27 -10.7000 172.700 TC 25 45 45 17 240
1981039S09178 1981 9 SP MM CLIFF 1981-02-09 03:00:00 TS -11.4047 171.887 main 657 578 P_____O_P_P_P_ SH151981 -11.0849 172.077 27 -1 -11.3000 171.300 20 25 1002 2.00000 -12.4314 171.621 30 997 -11.0701 172.065 1 28 -11.0849 172.077 TC 27 45 45 15 239
1981039S09178 1981 9 SP MM CLIFF 1981-02-09 06:00:00 TS -11.7790 171.272 main 578 508 O_____O_P_O_O_ jtwc_sh SH151981 -11.5000 171.500 30 -1 -11.5000 171.000 20 25 1002 2.00000 -12.8255 170.791 30 997 -11.5000 171.500 1 30 -11.5000 171.500 TC 30 45 45 14 236
1981039S09178 1981 9 SP MM CLIFF 1981-02-09 09:00:00 TS -12.1753 170.735 main 499 437 P_____O_P_P_P_ SH151981 -11.9924 170.977 30 -1 -11.7000 170.700 20 25 1002 2.00000 -13.1817 170.065 30 997 -12.0099 170.954 1 31 -11.9924 170.977 TC 30 45 45 13 230
1981039S09178 1981 9 SP MM CLIFF 1981-02-09 12:00:00 TS -12.6064 170.251 30 997 wellington main 437 367 O_____O_O_P_O_ jtwc_sh SH151981 -12.5000 170.500 30 -1 -12.0000 170.300 30 35 1000 3.00000 -13.5000 169.500 30 997 -12.5321 170.453 1 32 -12.5000 170.500 TC 30 49 49 12 226
1981039S09178 1981 9 SP MM CLIFF 1981-02-09 15:00:00 TS -13.0286 169.827 main 367 314 P_____O_P_P_P_ SH151981 -13.0024 170.035 32 -1 -12.3000 169.900 30 35 1000 3.00000 -13.8251 169.163 30 997 -13.0132 170.001 1 33 -13.0024 170.035 TC 32 49 49 11 226
1981039S09178 1981 9 SP MM CLIFF 1981-02-09 18:00:00 TS -13.3822 169.437 main 305 266 O_____O_P_O_O_ jtwc_sh SH151981 -13.4000 169.600 35 0 -12.6000 169.400 30 35 1000 3.00000 -14.1107 168.984 30 997 -13.4000 169.600 2 35 -13.4000 169.600 TC 35 49 49 9 231
1981039S09178 1981 9 SP MM CLIFF 1981-02-09 21:00:00 TS -13.6111 169.080 main 266 227 P_____O_P_P_P_ SH151981 -13.6025 169.162 35 0 -12.9000 169.000 30 35 1000 3.00000 -14.3411 168.888 30 997 -13.6092 169.188 2 35 -13.6025 169.162 TC 35 49 49 8 240
1981039S09178 1981 9 SP MM CLIFF 1981-02-10 00:00:00 TS -13.7650 168.767 30 997 wellington main 227 194 O_____O_O_P_O_ jtwc_sh SH151981 -13.7000 168.800 35 0 -13.2000 168.600 30 35 1000 3.00000 -14.5000 168.800 30 997 -13.7248 168.834 2 35 -13.7000 168.800 TC 35 49 49 6 244
1981039S09178 1981 9 SP MM CLIFF 1981-02-10 03:00:00 TS -13.8838 168.501 main 194 179 P_____O_P_P_P_ SH151981 -13.7924 168.532 35 0 -13.5000 168.300 30 35 998 3.00000 -14.5314 168.574 32 995 -13.8030 168.563 2 35 -13.7924 168.532 TC 35 49 49 5 240
1981039S09178 1981 9 SP MM CLIFF 1981-02-10 06:00:00 TS -14.0000 168.349 main 170 163 O_____O_P_O_O_ jtwc_sh SH151981 -13.9000 168.400 35 0 -13.8000 168.200 30 35 998 3.00000 -14.5002 168.347 35 993 -13.9000 168.400 2 35 -13.9000 168.400 TC 35 49 49 3 212
1981039S09178 1981 9 SP MM CLIFF 1981-02-10 09:00:00 TS -14.1599 168.327 main 157 157 P_____O_P_P_P_ SH151981 -14.0775 168.405 35 0 -14.1000 168.300 30 35 998 3.00000 -14.4689 168.146 37 991 -14.0758 168.379 2 36 -14.0775 168.405 TC 35 49 49 4 171
1981039S09178 1981 9 SP MM CLIFF 1981-02-10 12:00:00 TS -14.3565 168.412 40 990 wellington main 155 155 O_____O_O_P_O_ jtwc_sh SH151981 -14.3000 168.500 35 0 -14.4000 168.600 30 35 996 3.00000 -14.5000 168.000 40 990 -14.2824 168.459 2 37 -14.3000 168.500 TC 35 49 49 5 158
1981039S09178 1981 9 SP MM CLIFF 1981-02-10 15:00:00 TS -14.5847 168.509 main 157 154 P_____O_P_P_P_ SH151981 -14.5275 168.607 37 0 -14.7000 168.800 30 35 994 3.00000 -14.6455 167.942 42 988 -14.5228 168.585 2 38 -14.5275 168.607 TC 37 49 49 6 160
1981039S09178 1981 9 SP MM CLIFF 1981-02-10 18:00:00 TS -14.8730 168.608 main 161 149 O_____O_P_O_O_ jtwc_sh SH151981 -14.8000 168.700 40 0 -15.1000 169.000 30 40 992 3.00000 -14.8649 167.940 45 987 -14.8000 168.700 2 40 -14.8000 168.700 TC 40 55 55 6 167
1981039S09178 1981 9 SP MM CLIFF 1981-02-10 21:00:00 TS -15.1864 168.649 main 149 123 P_____O_P_P_P_ SH151981 -15.1350 168.715 42 0 -15.4000 169.100 30 40 992 3.00000 -15.1518 167.967 47 986 -15.1100 168.750 2 43 -15.1350 168.715 TC 42 55 55 7 178
1981039S09178 1981 9 SP MM CLIFF 1981-02-11 00:00:00 TS -15.5310 168.635 50 985 wellington main 123 96 O_____O_O_P_O_ jtwc_sh SH151981 -15.5000 168.700 45 0 -15.7000 169.000 30 40 992 3.00000 -15.5000 168.000 50 985 -15.4549 168.775 2 47 -15.5000 168.700 TC 45 55 55 7 0
1981039S09178 1981 9 SP MM CLIFF 1981-02-11 03:00:00 TS -15.9054 168.625 main 96 85 P_____O_P_P_P_ SH151981 -15.8500 168.722 50 0 -16.1000 168.900 30 45 989 3.00000 -15.9047 168.020 53 981 -15.8224 168.762 2 51 -15.8500 168.722 TC 50 64 64 7 185
1981039S09178 1981 9 SP MM CLIFF 1981-02-11 06:00:00 TS -16.2725 168.567 main 85 74 O_____O_P_O_O_ jtwc_sh SH151981 -16.2000 168.700 55 0 -16.4000 168.700 30 45 990 3.00000 -16.3625 168.037 57 977 -16.2000 168.700 2 55 -16.2000 168.700 TC 55 64 64 8 192
1981039S09178 1981 9 SP MM CLIFF 1981-02-11 09:00:00 TS -16.6719 168.458 main 75 64 P_____O_P_P_P_ SH151981 -16.5425 168.580 57 0 -16.9000 168.500 30 50 988 3.50000 -16.8390 168.036 61 973 -16.5353 168.595 2 57 -16.5425 168.580 TC 57 69 69 8 197
1981039S09178 1981 9 SP MM CLIFF 1981-02-11 12:00:00 TS -17.0365 168.328 65 970 wellington main 69 69 O_____O_O_P_O_ jtwc_sh SH151981 -16.9000 168.400 60 0 -17.2000 168.400 30 50 985 3.50000 -17.3000 168.000 65 970 -16.8824 168.439 2 60 -16.9000 168.400 TC 60 69 69 8 201
1981039S09178 1981 9 SP MM CLIFF 1981-02-11 15:00:00 TS -17.3942 168.164 main 99 95 P_____O_P_P_P_ SH151981 -17.2700 168.215 62 0 -17.5000 168.200 30 55 982 4.00000 -17.6679 167.951 65 970 -17.2634 168.239 2 62 -17.2700 168.215 TC 62 75 75 8 205
1981039S09178 1981 9 SP MM CLIFF 1981-02-11 18:00:00 TS -17.7839 167.972 main 135 135 O_____O_P_O_O_ jtwc_sh SH151981 -17.7000 168.000 65 1 -17.8000 168.000 30 55 980 4.00000 -18.0196 167.861 65 970 -17.7000 168.000 4 65 -17.7000 168.000 TC 65 75 75 9 204
1981039S09178 1981 9 SP MM CLIFF 1981-02-11 21:00:00 TS -18.2479 167.764 main 179 179 P_____O_P_P_P_ SH151981 -18.2199 167.772 67 1 -18.2000 167.800 30 55 980 4.00000 -18.3865 167.716 65 970 -18.2133 167.760 4 67 -18.2199 167.772 TC 67 75 75 11 204
1981039S09178 1981 9 SP MM CLIFF 1981-02-12 00:00:00 TS -18.7564 167.516 65 970 wellington main 246 246 O_____O_O_P_O_ jtwc_sh SH151981 -18.8000 167.500 70 1 -18.6000 167.600 30 55 980 4.00000 -18.8000 167.500 65 970 -18.7822 167.482 4 70 -18.8000 167.500 TC 70 75 75 12 207
1981039S09178 1981 9 SP MM CLIFF 1981-02-12 03:00:00 TS -19.3355 167.169 main 267 190 P_____O_P_P_P_ SH151981 -19.3925 167.172 72 1 -19.2000 167.100 30 55 980 4.00000 -19.3074 167.237 65 970 -19.3850 167.163 4 72 -19.3925 167.172 TC 70 75 75 14 212
1981039S09178 1981 9 SP MM CLIFF 1981-02-12 06:00:00 TS -19.9524 166.740 main 175 105 O_____O_P_O_O_ jtwc_sh SH151981 -20.0000 166.800 75 1 -19.9000 166.400 40 65 975 4.50000 -19.8618 166.899 65 970 -20.0000 166.800 4 75 -20.0000 166.800 TC 70 975 89 89 15 212
1981039S09178 1981 9 SP MM CLIFF 1981-02-12 09:00:00 TS -20.5870 166.333 main 98 33 P_____O_P_P_P_ SH151981 -20.5998 166.422 75 1 -20.7000 165.900 40 65 975 4.50000 -20.4353 166.487 65 970 -20.6002 166.433 4 73 -20.5998 166.422 TC 70 975 89 89 15 214
1981039S09178 1981 9 SP MM CLIFF 1981-02-12 12:00:00 TS -21.1612 165.884 65 970 wellington main 24 0 O_____O_O_P_O_ jtwc_sh SH151981 -21.2000 166.000 75 1 -21.2000 165.400 40 65 975 4.50000 4 -21.0000 166.000 65 970 -21.2062 166.018 4 72 -21.2000 166.000 TC 70 975 89 89 14 218
1981039S09178 1981 9 SP MM CLIFF 1981-02-12 15:00:00 TS -21.7045 165.398 main 10 10 P_____O_P_P_P_ SH151981 -21.7998 165.530 72 1 -21.6000 164.900 40 65 975 4.50000 -21.5136 165.486 65 970 -21.8092 165.544 4 71 -21.7998 165.530 TC 70 89 89 14 222
1981039S09178 1981 9 SP MM CLIFF 1981-02-12 18:00:00 TS -22.2227 164.859 main 78 78 O_____O_P_O_O_ jtwc_sh SH151981 -22.4000 165.000 70 1 -21.9000 164.400 40 65 975 4.50000 -22.0136 164.897 65 970 -22.4000 165.000 4 70 -22.4000 165.000 TC 70 89 89 15 226
1981039S09178 1981 9 SP MM CLIFF 1981-02-12 21:00:00 TS -22.7289 164.265 main 157 157 P_____O_P_P_P_ SH151981 -23.0145 164.445 67 1 -22.1000 163.800 40 65 975 4.50000 -22.5068 164.235 65 970 -23.0084 164.401 4 67 -23.0145 164.445 TC 67 89 89 16 228
1981039S09178 1981 9 SP MM CLIFF 1981-02-13 00:00:00 TS -23.2593 163.606 65 970 wellington main 250 250 O_____O_O_P_O_ jtwc_sh SH151981 -23.6000 163.800 65 1 -22.5000 163.200 30 60 978 4.00000 -23.0000 163.500 65 970 -23.5964 163.728 4 65 -23.6000 163.800 TC 65 84 84 17 230
1981039S09178 1981 9 SP MM CLIFF 1981-02-13 03:00:00 TS -23.8135 162.854 main 337 337 P_____O_P_P_P_ SH151981 -24.1374 163.037 62 0 -23.1000 162.500 30 60 980 4.00000 -23.5569 162.703 62 972 -24.1361 162.992 4 62 -24.1374 163.037 TC 62 84 84 18 232
1981039S09178 1981 9 SP MM CLIFF 1981-02-13 06:00:00 TS -24.3810 162.047 main 447 447 O_____O_P_O_O_ jtwc_sh SH151981 -24.6000 162.200 60 0 -24.0000 161.800 30 55 980 4.00000 -24.1050 161.836 60 975 -24.6000 162.200 2 60 -24.6000 162.200 TC 60 75 75 18 236
1981039S09178 1981 9 SP MM CLIFF 1981-02-13 09:00:00 TS -24.8551 161.186 main 544 544 P_____O_P_P_P_ SH151981 -24.9945 161.365 57 0 -24.7000 160.900 30 55 980 4.00000 -24.6004 160.925 57 977 -24.9863 161.374 2 57 -24.9945 161.365 TC 57 75 75 19 243
1981039S09178 1981 9 SP MM CLIFF 1981-02-13 12:00:00 TS -25.2184 160.200 50 985 bom main 640 595 O_____O_O_P_O_ jtwc_sh SH151981 -25.3000 160.500 55 0 -25.2000 159.500 30 50 985 3.50000 -25.0000 160.000 55 980 -25.2920 160.501 2 55 -25.3000 160.500 TC 55 69 69 19 251
1981039S09178 1981 9 SP EA CLIFF 1981-02-13 15:00:00 TS -25.4723 159.252 50 980 bom main 595 506 P_____O_P_P_P_ SH151981 -25.5297 159.599 52 0 -25.5000 158.400 30 50 980 3.50000 -25.2753 159.056 52 981 -25.5266 159.603 2 52 -25.5297 159.599 TC 52 69 69 17 255
1981039S09178 1981 9 SP EA CLIFF 1981-02-13 18:00:00 TS -25.6502 158.383 50 985 bom main 508 430 O_____O_P_O_O_ jtwc_sh SH151981 -25.7000 158.700 50 0 -25.7000 157.700 30 50 985 3.50000 -25.4508 158.115 50 983 -25.7000 158.700 2 50 -25.7000 158.700 TC 50 69 69 15 258
1981039S09178 1981 9 SP EA CLIFF 1981-02-13 21:00:00 TS -25.7971 157.584 50 985 bom main 430 355 P_____O_P_P_P_ SH151981 -25.8792 157.850 47 0 -25.8000 157.200 30 50 985 3.50000 -25.5507 157.216 47 985 -25.8763 157.805 2 47 -25.8792 157.850 TC 47 69 69 15 261
1981039S09178 1981 9 SP EA CLIFF 1981-02-14 00:00:00 TS -25.8783 156.783 50 985 bom main 355 279 O_____O_O_P_O_ jtwc_sh SH151981 -26.0000 157.000 45 0 -25.8000 156.600 30 50 985 3.50000 -25.6000 156.400 45 987 -25.9916 156.913 2 45 -26.0000 157.000 TC 45 69 69 14 265
1981039S09178 1981 9 SP EA CLIFF 1981-02-14 03:00:00 TS -25.9209 155.991 50 985 bom main 279 205 P_____O_P_P_P_ SH151981 -26.0525 156.085 42 0 -25.8000 156.000 30 50 985 3.50000 -25.6636 155.746 43 987 -26.0359 156.040 2 42 -26.0525 156.085 TC 42 69 69 14 270
1981039S09178 1981 9 SP EA CLIFF 1981-02-14 06:00:00 TS -25.8769 155.194 50 985 bom main 205 134 O_____O_P_O_O_ jtwc_sh SH151981 -26.0000 155.200 40 0 -25.7000 155.200 30 50 985 3.50000 -25.6847 155.170 42 988 -26.0000 155.200 2 40 -26.0000 155.200 TC 40 69 69 14 277
1981039S09178 1981 9 SP EA CLIFF 1981-02-14 09:00:00 TS -25.7520 154.487 50 985 bom main 134 61 P_____O_P_P_P_ SH151981 -25.8292 154.427 37 0 -25.6000 154.500 30 50 985 3.50000 -25.6638 154.609 41 989 -25.8379 154.472 2 38 -25.8292 154.427 TC 37 69 69 13 284
1981039S09178 1981 9 SP EA CLIFF 1981-02-14 12:00:00 TS -25.5616 153.794 50 985 bom main 61 0 O_____O_O_P_O_ jtwc_sh SH151981 -25.6000 153.700 35 0 -25.4000 153.800 30 50 985 3.50000 -25.6000 154.000 40 990 -25.6082 153.770 2 37 -25.6000 153.700 TC 35 69 69 13 288
1981039S09178 1981 9 SP EA CLIFF 1981-02-14 15:00:00 TS -25.3643 153.141 45 985 bom main 0 0 P_____O_P_P_P_ SH151981 -25.3765 152.987 35 0 -25.2000 153.400 30 45 985 -25.4935 153.295 37 991 -25.3748 153.034 2 36 -25.3765 152.987 TC 32 64 64 14 285
1981039S09178 1981 9 SP EA CLIFF 1981-02-14 18:00:00 TS -25.2029 152.333 40 990 bom main 0 0 O_____O_P_O_O_ jtwc_sh SH151981 -25.2000 152.200 35 0 -25.1000 152.600 30 40 990 -25.3515 152.507 35 993 -25.2000 152.200 2 35 -25.2000 152.200 TC 30 55 55 16 278
1981039S09178 1981 9 SP EA CLIFF 1981-02-14 21:00:00 TS -25.1399 151.379 35 992 bom main 0 0 P_____O_P_P_P_ SH151981 -25.1042 151.275 32 -1 -25.2000 151.600 30 35 992 -25.1836 151.666 32 995 -25.1291 151.221 2 31 -25.1042 151.275 TC 30 49 49 18 273
1981039S09178 1981 9 SP EA CLIFF 1981-02-15 00:00:00 TS -25.1023 150.339 30 998 bom main 0 0 O_____O_O_P_O_ jtwc_sh SH151981 -25.1000 150.200 30 -1 -25.1000 150.600 20 30 998 -25.0000 150.800 30 997 -25.1441 150.118 2 27 -25.1000 150.200 TC 30 45 45 22 264
1981039S09178 1981 9 SP EA CLIFF 1981-02-15 03:00:00 TS -25.3604 148.979 20 1000 bom main 0 0 P_____O___P_P_ SH151981 -25.1800 148.988 25 -1 -25.7000 149.000 20 20 1000 -25.2118 148.930 2 23 -25.1800 148.988 TC 27 45 45 26 258
1981039S09178 1981 9 SP EA CLIFF 1981-02-15 06:00:00 TS -25.6200 147.540 20 999 bom main 0 0 O_____O___O_O_ jtwc_sh SH151981 -25.3000 147.700 20 -1 -26.1000 147.300 20 20 999 -25.3000 147.700 1 20 -25.3000 147.700 TC 25 45 45 23 254
1981039S09178 1981 9 SP EA CLIFF 1981-02-15 09:00:00 NR -26.0000 146.500 20 1000 bom main 0 ______O_______ SH151981 -1 -26.0000 146.500 20 20 1000 1 TC 45 45 20 248

Digital Typhoon Data and Search

About IBTrACS Database

This database is a web-friendly format of International Best Track Archive for Climate Stewardship (IBTrACS), a global best track data archive curated by NOAA dating back to 1842.

Updated: 2021-10-21